Roslyn Heights, New York
Current Conditions -  °F | °C
As of 3:51 PM on Saturday 25 Oct 2014 (Local Time) from KLGA Reporting Station
Scattered Clouds Scattered Clouds  
Wind Chill: 68°   Ceiling: Unl
Heat Index: 68°   Visibility: 10mi
Dew Point: 42°   Wind: 9mph
Humidity: 39%   Direction: 220°SW
Pressure: 29.67"   Gusts: NA
Location:  40.79°N, 73.65°W
Report Text: KLGA 251951Z 22008KT 10SM FEW050 SCT250 20/06 A2967 RMK AO2 SLP047 T02000056
Loading
Personal Weather Stations






























Interactive Weather Map
Tropical Storm Tracking
New forecast layout! Learn more

10-Day Weather Forecast

Advertisements
Track Severe Weather on mobile